Time;durP1;ratioP1;P1;durP2;ratioP2;P2;SDS_P1;SDS_P2;PMS_P1;PMS_P2;Temp;Humidity;BMP_temperature;BMP_pressure;BME280_temperature;BME280_humidity;BME280_pressure;Samples;Min_cycle;Max_cycle;Signal;HPM_P1;HPM_P2
2021/12/31 00:01:37;;;;;;;72.32;31.75;;;;;;;6.54;91.79;98532.31;5091690;28;20027;-65
2021/12/31 00:04:02;;;;;;;102.97;43.25;;;;;;;6.60;92.05;98530.41;5110580;28;20075;-66
2021/12/31 00:06:28;;;;;;;109.93;41.53;;;;;;;6.64;92.00;98533.44;5109530;28;20334;-66
2021/12/31 00:08:53;;;;;;;133.20;49.67;;;;;;;6.67;92.20;98536.41;5109847;28;20027;-66
2021/12/31 00:11:19;;;;;;;133.45;48.08;;;;;;;6.70;92.38;98537.81;5091604;28;20016;-66
2021/12/31 00:13:44;;;;;;;106.05;40.00;;;;;;;6.73;92.34;98539.16;5090913;28;20036;-66
2021/12/31 00:16:10;;;;;;;137.38;50.35;;;;;;;6.73;91.90;98531.78;5110372;28;20437;-66
2021/12/31 00:18:35;;;;;;;68.35;31.20;;;;;;;6.76;92.13;98527.72;5110366;28;20512;-66
2021/12/31 00:21:02;;;;;;;65.93;33.13;;;;;;;6.75;91.93;98529.63;5110777;28;20034;-66
2021/12/31 00:23:27;;;;;;;144.75;59.35;;;;;;;6.75;91.97;98531.53;5110000;28;20102;-65
2021/12/31 00:25:53;;;;;;;79.63;34.30;;;;;;;6.75;91.93;98543.25;5109300;28;20435;-65
2021/12/31 00:28:18;;;;;;;111.82;42.97;;;;;;;6.78;92.19;98536.44;5110288;28;20131;-66
2021/12/31 00:30:46;;;;;;;100.95;41.60;;;;;;;6.77;91.97;98530.16;5110821;28;20034;-65
2021/12/31 00:33:12;;;;;;;86.07;38.88;;;;;;;6.78;91.69;98533.72;5110447;28;20023;-65
2021/12/31 00:35:38;;;;;;;97.20;39.55;;;;;;;6.77;91.74;98541.06;5109191;28;20035;-65
2021/12/31 00:38:03;;;;;;;52.75;26.25;;;;;;;6.79;92.03;98535.38;5109546;28;20027;-65
2021/12/31 00:40:29;;;;;;;67.13;34.03;;;;;;;6.79;92.05;98538.88;5110589;28;20032;-65
2021/12/31 00:42:55;;;;;;;42.08;22.50;;;;;;;6.77;92.03;98549.25;5110268;28;20150;-65
2021/12/31 00:45:24;;;;;;;31.10;17.77;;;;;;;6.76;91.85;98547.59;5091768;28;20027;-66
2021/12/31 00:47:50;;;;;;;28.73;17.38;;;;;;;6.75;91.33;98553.34;5110014;28;20061;-65
2021/12/31 00:50:16;;;;;;;33.33;18.38;;;;;;;6.74;91.78;98548.97;5109616;28;20031;-65
2021/12/31 00:52:41;;;;;;;31.58;18.42;;;;;;;6.73;91.61;98555.50;5110256;28;20124;-66
2021/12/31 00:55:08;;;;;;;35.90;21.02;;;;;;;6.69;91.66;98555.25;5109794;28;20063;-67
2021/12/31 00:57:34;;;;;;;39.55;22.00;;;;;;;6.68;91.44;98557.13;5109940;28;20016;-66
2021/12/31 00:59:59;;;;;;;29.40;18.88;;;;;;;6.66;91.69;98563.97;5108136;28;20031;-65
2021/12/31 01:02:27;;;;;;;34.10;19.33;;;;;;;6.67;91.54;98565.59;5109679;28;20566;-65
2021/12/31 01:04:54;;;;;;;34.80;21.23;;;;;;;6.67;91.39;98573.78;5089405;28;20055;-65
2021/12/31 01:07:19;;;;;;;36.92;21.02;;;;;;;6.67;91.52;98577.31;5090452;28;20031;-66
2021/12/31 01:09:45;;;;;;;34.30;20.92;;;;;;;6.68;91.60;98573.50;5109639;28;20746;-66
2021/12/31 01:12:12;;;;;;;33.40;21.25;;;;;;;6.68;91.47;98569.97;5109312;28;20051;-66
2021/12/31 01:14:43;;;;;;;33.83;19.23;;;;;;;6.70;91.48;98575.97;5090613;28;20084;-65
2021/12/31 01:17:13;;;;;;;37.95;21.63;;;;;;;6.72;91.54;98570.22;5109183;28;20084;-65
2021/12/31 01:19:48;;;;;;;38.65;21.75;;;;;;;6.74;92.08;98578.97;5088783;28;20027;-67
2021/12/31 01:22:30;;;;;;;32.63;19.05;;;;;;;6.71;91.93;98574.88;5108299;28;20057;-66
2021/12/31 01:24:56;;;;;;;37.85;21.80;;;;;;;6.71;91.36;98569.44;5109199;28;20844;-65
2021/12/31 01:27:22;;;;;;;36.13;21.55;;;;;;;6.70;91.85;98567.78;5108947;28;20482;-66
2021/12/31 01:29:47;;;;;;;33.78;19.67;;;;;;;6.71;91.43;98569.44;5109412;28;20007;-65
2021/12/31 01:32:13;;;;;;;32.53;20.42;;;;;;;6.72;91.66;98568.34;5108441;28;20024;-65
2021/12/31 01:34:39;;;;;;;33.50;20.27;;;;;;;6.74;91.87;98571.59;5108489;28;20164;-66
2021/12/31 01:37:06;;;;;;;29.52;17.83;;;;;;;6.78;91.75;98574.63;5109077;28;20439;-65
2021/12/31 01:39:31;;;;;;;33.42;18.65;;;;;;;6.78;91.47;98572.69;5109210;28;20388;-65
2021/12/31 01:41:59;;;;;;;31.90;19.23;;;;;;;6.77;91.26;98573.78;5109182;28;20023;-64
2021/12/31 01:44:35;;;;;;;28.23;16.20;;;;;;;6.76;91.84;98580.31;5108371;28;20024;-64
2021/12/31 01:47:08;;;;;;;37.72;21.73;;;;;;;6.76;91.28;98574.88;5108552;28;20384;-65
2021/12/31 01:49:36;;;;;;;33.72;19.80;;;;;;;6.77;91.67;98575.69;5108017;28;20046;-66
2021/12/31 01:52:03;;;;;;;27.73;17.17;;;;;;;6.75;91.46;98578.69;5109612;28;20028;-66
2021/12/31 01:54:30;;;;;;;27.20;16.80;;;;;;;6.76;91.47;98585.78;5110383;28;20091;-65
2021/12/31 01:56:56;;;;;;;29.38;17.40;;;;;;;6.75;91.60;98586.84;5110700;28;20023;-66
2021/12/31 01:59:22;;;;;;;34.17;21.95;;;;;;;6.74;91.39;98587.94;5109435;28;20023;-65
2021/12/31 02:01:47;;;;;;;26.83;16.38;;;;;;;6.72;91.70;98592.88;5108326;28;20027;-65
2021/12/31 02:04:13;;;;;;;28.05;18.02;;;;;;;6.71;91.72;98585.78;5107824;28;20376;-65
2021/12/31 02:06:39;;;;;;;35.85;22.80;;;;;;;6.72;91.61;98592.03;5109631;28;20024;-65
2021/12/31 02:09:06;;;;;;;31.92;19.30;;;;;;;6.69;91.59;98588.75;5109727;28;20026;-65
2021/12/31 02:11:32;;;;;;;29.67;18.35;;;;;;;6.68;91.59;98586.31;5105312;28;20506;-65
2021/12/31 02:13:58;;;;;;;31.60;19.50;;;;;;;6.67;91.58;98585.47;5108815;28;20475;-67
2021/12/31 02:16:24;;;;;;;31.45;18.02;;;;;;;6.69;91.60;98582.50;5109126;28;20535;-66
2021/12/31 02:18:49;;;;;;;28.42;18.90;;;;;;;6.69;91.66;98574.31;5109633;28;20102;-67
2021/12/31 02:21:15;;;;;;;29.88;18.10;;;;;;;6.68;91.62;98573.50;5109476;28;20038;-67
2021/12/31 02:23:46;;;;;;;32.58;18.67;;;;;;;6.66;91.65;98572.94;5107912;28;20129;-66
2021/12/31 02:26:13;;;;;;;31.48;18.90;;;;;;;6.62;91.66;98571.81;5090232;28;20035;-66
2021/12/31 02:28:39;;;;;;;29.33;17.38;;;;;;;6.62;91.34;98565.56;5109504;28;20012;-66
2021/12/31 02:31:05;;;;;;;35.22;21.48;;;;;;;6.64;91.78;98568.84;5109003;28;20399;-66
2021/12/31 02:33:31;;;;;;;30.40;19.08;;;;;;;6.61;91.52;98564.75;5108507;28;20160;-66
2021/12/31 02:35:58;;;;;;;32.33;20.17;;;;;;;6.61;91.49;98566.66;5091243;28;20413;-66
2021/12/31 02:38:24;;;;;;;33.08;18.63;;;;;;;6.61;91.21;98564.75;5109351;28;20016;-67
2021/12/31 02:40:49;;;;;;;30.95;18.50;;;;;;;6.60;91.48;98575.91;5109779;28;20490;-67
2021/12/31 02:43:15;;;;;;;31.95;20.15;;;;;;;6.59;91.28;98571.56;5107774;28;20866;-67
2021/12/31 02:45:42;;;;;;;31.80;19.67;;;;;;;6.59;91.57;98569.63;5109509;28;20421;-66
2021/12/31 02:48:08;;;;;;;32.55;20.38;;;;;;;6.60;91.43;98573.19;5108151;28;20023;-67
2021/12/31 02:50:40;;;;;;;34.00;20.25;;;;;;;6.62;91.51;98576.47;5109273;28;20050;-66
2021/12/31 02:53:11;;;;;;;30.10;19.65;;;;;;;6.62;91.89;98579.19;5106994;28;20032;-67
2021/12/31 02:55:38;;;;;;;33.80;20.80;;;;;;;6.63;91.78;98578.13;5110081;28;20029;-67
2021/12/31 02:58:05;;;;;;;34.58;22.65;;;;;;;6.61;91.64;98572.91;5108654;28;20488;-66
2021/12/31 03:00:32;;;;;;;30.85;19.40;;;;;;;6.63;91.98;98576.19;5109594;28;20016;-67
2021/12/31 03:03:01;;;;;;;30.77;18.98;;;;;;;6.65;91.46;98586.84;5107358;28;20464;-67
2021/12/31 03:05:28;;;;;;;30.58;18.67;;;;;;;6.65;91.90;98586.84;5108627;28;20491;-68
2021/12/31 03:07:55;;;;;;;34.45;20.60;;;;;;;6.65;91.85;98586.84;5108973;28;20035;-68
2021/12/31 03:10:22;;;;;;;31.45;19.20;;;;;;;6.65;91.86;98584.13;5107470;28;20031;-67
2021/12/31 03:12:50;;;;;;;30.40;18.92;;;;;;;6.64;91.87;98583.28;5108129;28;20028;-67
2021/12/31 03:15:15;;;;;;;28.65;19.38;;;;;;;6.65;92.21;98578.66;5090327;28;20483;-67
2021/12/31 03:17:41;;;;;;;27.80;17.30;;;;;;;6.66;91.85;98585.75;5108766;28;20030;-66
2021/12/31 03:20:24;;;;;;;28.48;17.63;;;;;;;6.67;91.67;98582.75;5109173;28;20076;-66
2021/12/31 03:22:50;;;;;;;30.15;19.88;;;;;;;6.68;91.90;98586.31;5107537;28;20024;-67
2021/12/31 03:25:15;;;;;;;28.05;18.00;;;;;;;6.70;91.85;98590.41;5107636;28;20036;-66
2021/12/31 03:27:41;;;;;;;26.40;17.05;;;;;;;6.73;91.81;98596.41;5108188;28;20578;-66
2021/12/31 03:30:06;;;;;;;27.55;17.70;;;;;;;6.71;91.49;98585.78;5108655;28;20016;-66
2021/12/31 03:32:32;;;;;;;24.88;16.25;;;;;;;6.73;91.92;98591.75;5108490;28;20043;-66
2021/12/31 03:34:57;;;;;;;25.90;15.90;;;;;;;6.76;91.96;98587.69;5089921;28;20032;-67
2021/12/31 03:37:23;;;;;;;22.83;15.63;;;;;;;6.78;91.89;98591.78;5108307;28;20028;-66
2021/12/31 03:39:48;;;;;;;25.50;16.10;;;;;;;6.80;92.02;98592.31;5108293;28;20064;-67
2021/12/31 03:42:16;;;;;;;26.00;15.88;;;;;;;6.84;92.12;98595.34;5089876;28;20138;-66
2021/12/31 03:44:44;;;;;;;27.48;17.05;;;;;;;6.86;91.92;98590.47;5108037;28;20444;-67
2021/12/31 03:47:10;;;;;;;23.33;14.60;;;;;;;6.88;92.10;98599.19;5107971;28;20024;-66
2021/12/31 03:49:35;;;;;;;24.75;17.00;;;;;;;6.92;92.06;98594.00;5108610;28;20032;-66
2021/12/31 03:52:01;;;;;;;26.83;17.17;;;;;;;6.95;92.12;98602.44;5107867;28;20038;-66
2021/12/31 03:54:26;;;;;;;27.45;17.58;;;;;;;6.98;92.21;98603.84;5107820;28;20116;-66
2021/12/31 03:56:52;;;;;;;27.45;17.58;;;;;;;6.97;92.34;98594.03;5090653;28;20086;-66
2021/12/31 03:59:17;;;;;;;28.50;18.42;;;;;;;7.00;92.35;98598.94;5108417;28;20024;-66
2021/12/31 04:01:42;;;;;;;24.83;15.60;;;;;;;7.01;92.00;98597.84;5107835;28;20061;-66
2021/12/31 04:04:09;;;;;;;27.77;17.48;;;;;;;7.05;92.24;98596.22;5108241;28;20078;-66
2021/12/31 04:06:35;;;;;;;28.17;18.27;;;;;;;7.08;92.47;98597.56;5107159;28;20034;-66
2021/12/31 04:09:00;;;;;;;27.42;17.45;;;;;;;7.05;92.45;98596.22;5106852;28;20039;-66
2021/12/31 04:11:26;;;;;;;26.13;17.58;;;;;;;7.09;92.13;98593.75;5107818;28;20031;-66
2021/12/31 04:13:52;;;;;;;27.08;17.00;;;;;;;7.10;92.44;98587.22;5109268;28;20032;-66
2021/12/31 04:16:17;;;;;;;28.20;18.00;;;;;;;7.12;92.03;98591.34;5111285;28;20460;-66
2021/12/31 04:18:43;;;;;;;30.83;20.17;;;;;;;7.17;92.31;98585.06;5111853;28;20039;-65
2021/12/31 04:21:08;;;;;;;27.88;17.52;;;;;;;7.20;92.62;98591.88;5111684;28;20027;-65
2021/12/31 04:23:47;;;;;;;28.50;16.40;;;;;;;7.22;92.66;98581.50;5108359;28;20116;-65
2021/12/31 04:26:12;;;;;;;26.77;15.68;;;;;;;7.26;92.80;98591.63;5110115;28;20475;-65
2021/12/31 04:28:38;;;;;;;23.52;14.88;;;;;;;7.29;92.57;98593.81;5110830;28;20027;-65
2021/12/31 04:31:04;;;;;;;21.58;14.07;;;;;;;7.34;92.86;98592.16;5105847;27;20102;-66
2021/12/31 04:33:29;;;;;;;21.27;13.50;;;;;;;7.39;92.95;98598.44;5109786;28;20390;-65
2021/12/31 04:35:55;;;;;;;22.50;13.77;;;;;;;7.42;92.86;98594.34;5110903;28;20032;-66
2021/12/31 04:38:20;;;;;;;21.88;14.40;;;;;;;7.45;93.00;98600.09;5110481;28;20039;-66
2021/12/31 04:40:46;;;;;;;18.48;11.75;;;;;;;7.45;93.10;98594.63;5111193;28;20788;-66
2021/12/31 04:43:11;;;;;;;21.02;12.55;;;;;;;7.50;92.68;98601.19;5109026;28;20035;-66
2021/12/31 04:45:36;;;;;;;19.17;12.35;;;;;;;7.54;92.76;98611.28;5092670;28;20138;-66
2021/12/31 04:48:03;;;;;;;19.30;12.45;;;;;;;7.56;92.64;98603.63;5112600;28;20027;-65
2021/12/31 04:50:29;;;;;;;16.25;11.13;;;;;;;7.59;92.83;98594.06;5112182;28;20511;-66
2021/12/31 04:52:54;;;;;;;19.35;12.18;;;;;;;7.64;93.10;98596.81;5106875;28;20026;-66
2021/12/31 04:55:20;;;;;;;13.73;10.02;;;;;;;7.66;92.98;98602.00;5093301;28;20530;-66
2021/12/31 04:57:48;;;;;;;17.17;11.02;;;;;;;7.69;93.00;98591.34;5112256;28;20099;-66
2021/12/31 05:00:14;;;;;;;15.45;10.27;;;;;;;7.72;92.88;98599.00;5111549;28;20027;-66
2021/12/31 05:02:40;;;;;;;14.68;9.65;;;;;;;7.74;93.37;98598.72;5110887;28;20023;-66
2021/12/31 05:05:06;;;;;;;15.43;11.13;;;;;;;7.76;93.43;98593.78;5111610;28;20039;-65
2021/12/31 05:07:33;;;;;;;16.35;10.93;;;;;;;7.77;93.26;98591.88;5111583;28;20120;-65
2021/12/31 05:09:58;;;;;;;18.25;11.30;;;;;;;7.75;93.27;98595.72;5092187;28;20463;-65
2021/12/31 05:12:28;;;;;;;16.27;10.48;;;;;;;7.75;92.65;98595.72;5110289;28;20040;-65
2021/12/31 05:14:53;;;;;;;14.60;10.07;;;;;;;7.77;93.41;98598.16;5110619;28;20494;-65
2021/12/31 05:17:19;;;;;;;16.88;10.18;;;;;;;7.80;93.32;98605.00;5111780;28;20023;-65
2021/12/31 05:19:45;;;;;;;16.23;10.25;;;;;;;7.81;93.21;98601.19;5112151;28;20020;-65
2021/12/31 05:22:14;;;;;;;18.98;12.23;;;;;;;7.80;93.13;98603.06;5110924;28;20030;-65
2021/12/31 05:24:40;;;;;;;18.00;10.70;;;;;;;7.81;93.19;98606.63;5111342;28;20032;-65
2021/12/31 05:27:06;;;;;;;18.33;12.32;;;;;;;7.81;92.64;98601.19;5092733;28;20058;-65
2021/12/31 05:29:33;;;;;;;19.75;12.45;;;;;;;7.80;93.20;98608.53;5110976;28;20031;-65
2021/12/31 05:31:58;;;;;;;17.67;11.15;;;;;;;7.79;92.89;98611.56;5111048;28;20032;-65
2021/12/31 05:34:23;;;;;;;18.77;12.20;;;;;;;7.77;93.26;98614.53;5111249;28;20134;-66
2021/12/31 05:36:49;;;;;;;20.27;12.52;;;;;;;7.76;93.12;98612.91;5110502;28;20488;-67
2021/12/31 05:39:14;;;;;;;21.60;13.82;;;;;;;7.74;92.70;98615.91;5111780;28;20114;-66
2021/12/31 05:41:40;;;;;;;23.35;13.85;;;;;;;7.74;92.91;98609.66;5111359;28;20035;-67
2021/12/31 05:44:07;;;;;;;25.00;15.00;;;;;;;7.70;92.85;98609.38;5110917;28;20039;-66
2021/12/31 05:46:33;;;;;;;26.38;15.80;;;;;;;7.68;92.87;98608.00;5111403;28;20024;-66
2021/12/31 05:48:58;;;;;;;23.20;13.95;;;;;;;7.64;92.76;98610.44;5111597;28;20673;-66
2021/12/31 05:51:26;;;;;;;23.15;14.02;;;;;;;7.60;92.81;98607.47;5110499;28;20035;-67
2021/12/31 05:53:52;;;;;;;23.80;15.27;;;;;;;7.59;92.70;98619.47;5110490;28;20031;-66
2021/12/31 05:56:17;;;;;;;26.88;16.27;;;;;;;7.57;92.72;98610.72;5108931;28;20028;-66
2021/12/31 05:58:43;;;;;;;26.80;16.48;;;;;;;7.55;92.66;98617.53;5110155;28;20032;-65
2021/12/31 06:01:08;;;;;;;23.77;14.68;;;;;;;7.53;92.80;98611.56;5109031;28;20102;-65
2021/12/31 06:03:33;;;;;;;25.20;14.30;;;;;;;7.51;93.07;98611.00;5110073;28;20420;-66
2021/12/31 06:05:59;;;;;;;24.55;14.00;;;;;;;7.47;92.60;98612.66;5110399;28;20036;-65
2021/12/31 06:08:24;;;;;;;25.52;14.93;;;;;;;7.45;92.40;98613.75;5110761;28;20072;-67
2021/12/31 06:10:50;;;;;;;44.90;23.85;;;;;;;7.46;93.08;98617.28;5109417;28;20063;-66
2021/12/31 06:13:15;;;;;;;116.90;44.65;;;;;;;7.45;92.73;98615.63;5109035;28;20024;-65
2021/12/31 06:15:42;;;;;;;169.15;56.15;;;;;;;7.43;92.74;98626.84;5109254;28;20028;-65
2021/12/31 06:18:08;;;;;;;62.15;32.67;;;;;;;7.42;92.31;98621.63;5107807;28;20024;-65
2021/12/31 06:20:36;;;;;;;57.80;34.53;;;;;;;7.40;92.61;98629.28;5110303;28;20095;-65
2021/12/31 06:23:01;;;;;;;51.33;29.88;;;;;;;7.38;92.61;98621.38;5109995;28;20114;-65
2021/12/31 06:25:27;;;;;;;64.38;34.25;;;;;;;7.38;92.58;98626.00;5109801;28;20027;-65
2021/12/31 06:27:52;;;;;;;67.88;36.33;;;;;;;7.37;92.90;98638.81;5109973;28;20030;-65
2021/12/31 06:30:18;;;;;;;58.22;30.52;;;;;;;7.34;92.75;98647.56;5108380;28;20076;-65
2021/12/31 06:32:43;;;;;;;61.70;30.95;;;;;;;7.32;92.54;98647.00;5107360;28;20035;-65
2021/12/31 06:35:09;;;;;;;44.92;25.67;;;;;;;7.32;92.77;98640.75;5109635;28;20043;-65
2021/12/31 06:37:34;;;;;;;38.05;22.95;;;;;;;7.28;92.56;98643.16;5110053;28;20407;-65
2021/12/31 06:40:04;;;;;;;35.85;22.35;;;;;;;7.23;92.54;98637.69;5110477;28;20031;-66
2021/12/31 06:42:29;;;;;;;41.13;24.55;;;;;;;7.22;92.45;98641.50;5089907;28;20071;-66
2021/12/31 06:44:55;;;;;;;36.40;22.08;;;;;;;7.15;92.64;98645.31;5109384;28;20065;-66
2021/12/31 06:47:20;;;;;;;39.72;22.73;;;;;;;7.11;92.12;98641.50;5108966;28;20027;-66
2021/12/31 06:49:45;;;;;;;37.28;21.45;;;;;;;7.07;92.21;98640.41;5091129;28;20051;-65
2021/12/31 06:52:11;;;;;;;42.03;24.77;;;;;;;7.05;92.35;98637.13;5106921;28;20035;-65
2021/12/31 06:54:36;;;;;;;43.38;24.05;;;;;;;7.04;92.07;98630.03;5109604;28;20421;-65
2021/12/31 06:57:03;;;;;;;42.17;25.13;;;;;;;7.04;92.25;98640.94;5110407;28;20020;-65
2021/12/31 06:59:29;;;;;;;54.55;31.83;;;;;;;7.04;92.12;98651.03;5110406;28;20077;-65
2021/12/31 07:01:55;;;;;;;49.78;27.38;;;;;;;7.01;92.04;98652.38;5106031;28;20062;-64
2021/12/31 07:04:20;;;;;;;53.53;32.92;;;;;;;7.02;92.00;98651.31;5091536;28;20059;-64
2021/12/31 07:06:46;;;;;;;59.53;39.33;;;;;;;7.02;92.29;98642.28;5109769;28;20055;-65
2021/12/31 07:09:11;;;;;;;83.97;51.70;;;;;;;7.03;92.46;98642.03;5110303;28;20577;-64
2021/12/31 07:11:36;;;;;;;68.75;37.38;;;;;;;7.04;92.01;98646.41;5107258;28;20106;-64
2021/12/31 07:14:02;;;;;;;52.08;30.38;;;;;;;7.05;92.29;98663.56;5109433;28;20036;-64
2021/12/31 07:16:28;;;;;;;45.15;25.83;;;;;;;7.03;92.16;98660.28;5089522;28;20040;-65
2021/12/31 07:18:53;;;;;;;52.78;27.40;;;;;;;7.03;92.20;98658.41;5109525;28;20343;-65
2021/12/31 07:21:18;;;;;;;56.55;33.03;;;;;;;7.03;92.29;98649.38;5110596;28;20015;-65
2021/12/31 07:23:44;;;;;;;102.97;50.85;;;;;;;7.03;92.51;98650.22;5107526;28;20132;-64
2021/12/31 07:26:09;;;;;;;84.85;42.67;;;;;;;7.05;92.56;98650.78;5109168;28;20031;-64
2021/12/31 07:28:35;;;;;;;58.78;34.85;;;;;;;7.05;92.18;98658.94;5107921;28;20038;-64
2021/12/31 07:31:00;;;;;;;62.03;33.40;;;;;;;7.09;92.44;98670.13;5110374;28;20032;-64
2021/12/31 07:33:26;;;;;;;71.63;38.03;;;;;;;7.11;92.36;98674.25;5109588;28;20106;-64
2021/12/31 07:35:53;;;;;;;63.15;33.75;;;;;;;7.13;92.48;98671.25;5109118;28;20027;-64
2021/12/31 07:38:27;;;;;;;47.63;28.58;;;;;;;7.13;92.23;98679.41;5108637;28;20110;-65
2021/12/31 07:40:53;;;;;;;65.32;38.67;;;;;;;7.14;92.57;98673.69;5108763;28;20102;-65
2021/12/31 07:43:20;;;;;;;57.75;33.25;;;;;;;7.18;92.29;98676.72;5110133;28;20103;-65
2021/12/31 07:45:45;;;;;;;63.17;35.55;;;;;;;7.21;92.39;98670.72;5108993;28;20059;-65
2021/12/31 07:48:11;;;;;;;131.23;68.60;;;;;;;7.23;92.15;98668.53;5109598;28;20090;-65
2021/12/31 07:50:37;;;;;;;103.47;57.03;;;;;;;7.26;92.06;98672.63;5113464;28;20114;-65
2021/12/31 07:53:04;;;;;;;53.65;31.10;;;;;;;7.29;92.39;98672.94;5111302;28;20024;-65
2021/12/31 07:55:30;;;;;;;60.88;33.03;;;;;;;7.32;91.69;98682.47;5112135;28;20035;-66
2021/12/31 07:57:56;;;;;;;72.70;49.03;;;;;;;7.34;92.53;98682.19;5113108;28;20024;-65
2021/12/31 08:00:21;;;;;;;68.78;35.20;;;;;;;7.35;92.26;98681.94;5111438;28;20089;-65
2021/12/31 08:02:46;;;;;;;53.88;27.38;;;;;;;7.38;92.27;98675.94;5110021;28;20020;-66
2021/12/31 08:05:12;;;;;;;65.28;32.33;;;;;;;7.42;92.22;98678.94;5113325;28;20067;-66
2021/12/31 08:07:37;;;;;;;53.17;26.13;;;;;;;7.47;92.57;98689.06;5113540;28;20098;-66
2021/12/31 08:10:03;;;;;;;49.20;24.27;;;;;;;7.53;91.91;98686.06;5113004;28;20434;-65
2021/12/31 08:12:29;;;;;;;43.05;23.50;;;;;;;7.59;92.06;98684.97;5112294;28;20798;-65
2021/12/31 08:14:55;;;;;;;52.08;27.02;;;;;;;7.65;91.78;98691.25;5111306;28;20039;-65
2021/12/31 08:17:20;;;;;;;54.72;27.88;;;;;;;7.71;91.68;98678.44;5110288;28;20036;-66
2021/12/31 08:19:45;;;;;;;49.97;28.42;;;;;;;7.79;91.80;98677.09;5091018;27;20031;-65
2021/12/31 08:22:11;;;;;;;43.10;22.88;;;;;;;7.84;92.14;98683.34;5108193;28;20024;-66
2021/12/31 08:24:37;;;;;;;45.97;23.67;;;;;;;7.87;91.72;98679.28;5099800;28;20485;-66
2021/12/31 08:27:02;;;;;;;56.63;28.70;;;;;;;7.90;91.53;98676.00;5106862;28;20027;-67
2021/12/31 08:29:28;;;;;;;45.58;24.77;;;;;;;7.94;91.92;98679.81;5111374;28;20020;-66
2021/12/31 08:31:53;;;;;;;50.67;26.83;;;;;;;7.98;91.87;98682.81;5111394;28;20468;-66
2021/12/31 08:34:19;;;;;;;52.67;26.38;;;;;;;8.01;91.95;98677.63;5108097;28;20120;-67
2021/12/31 08:36:44;;;;;;;56.75;30.08;;;;;;;8.05;91.68;98675.97;5089009;28;20036;-66
2021/12/31 08:39:10;;;;;;;40.30;23.02;;;;;;;8.08;91.71;98685.56;5107965;28;20034;-66
2021/12/31 08:41:40;;;;;;;44.72;25.02;;;;;;;8.12;91.61;98683.91;5111386;27;20027;-67
2021/12/31 08:44:06;;;;;;;50.17;26.15;;;;;;;8.16;90.85;98678.72;5107748;27;20040;-65
2021/12/31 08:46:33;;;;;;;50.05;26.08;;;;;;;8.21;91.51;98681.44;5110351;27;20072;-65
2021/12/31 08:48:58;;;;;;;52.47;28.75;;;;;;;8.24;91.37;98685.50;5111257;27;20152;-65
2021/12/31 08:51:25;;;;;;;48.15;27.80;;;;;;;8.28;91.27;98692.06;5093567;28;20118;-65
2021/12/31 08:53:51;;;;;;;49.30;26.08;;;;;;;8.28;90.91;98686.59;5111981;28;20051;-65
2021/12/31 08:56:16;;;;;;;41.88;22.63;;;;;;;8.28;91.25;98698.38;5094019;28;20456;-65
2021/12/31 08:58:42;;;;;;;35.83;20.83;;;;;;;8.29;90.71;98699.19;5113856;27;20398;-66
2021/12/31 09:01:07;;;;;;;43.55;23.30;;;;;;;8.30;91.14;98690.72;5111934;28;20023;-66
2021/12/31 09:03:33;;;;;;;36.40;20.40;;;;;;;8.35;90.74;98695.34;5110482;28;20024;-66
2021/12/31 09:05:58;;;;;;;35.92;21.17;;;;;;;8.41;90.51;98698.88;5111000;28;20045;-66
2021/12/31 09:08:23;;;;;;;39.17;21.33;;;;;;;8.44;90.72;98706.53;5112018;28;20440;-66
2021/12/31 09:10:50;;;;;;;34.55;19.40;;;;;;;8.47;91.24;98698.63;5111368;28;20036;-66
2021/12/31 09:13:15;;;;;;;34.38;20.52;;;;;;;8.51;90.79;98709.84;5111374;28;20032;-64
2021/12/31 09:15:41;;;;;;;35.40;22.60;;;;;;;8.53;90.60;98712.31;5111346;28;20031;-66
2021/12/31 09:18:06;;;;;;;37.80;23.02;;;;;;;8.56;90.55;98720.75;5109093;27;20067;-67
2021/12/31 09:20:32;;;;;;;42.92;25.27;;;;;;;8.61;90.34;98712.56;5112624;27;20032;-66
2021/12/31 09:22:57;;;;;;;36.17;20.58;;;;;;;8.65;90.78;98723.75;5110772;28;20019;-66
2021/12/31 09:25:23;;;;;;;32.10;18.75;;;;;;;8.69;90.06;98721.28;5109688;27;20340;-65
2021/12/31 09:27:49;;;;;;;35.42;18.58;;;;;;;8.73;90.61;98723.19;5109073;28;20035;-65
2021/12/31 09:30:14;;;;;;;32.20;17.25;;;;;;;8.78;90.59;98716.88;5111667;28;20452;-66
2021/12/31 09:32:40;;;;;;;31.90;18.33;;;;;;;8.85;89.80;98717.41;5105354;27;20456;-66
2021/12/31 09:35:06;;;;;;;38.05;22.95;;;;;;;8.91;90.54;98710.81;5107604;27;20464;-68
2021/12/31 09:37:33;;;;;;;35.50;19.65;;;;;;;8.98;90.27;98709.72;5107589;28;20035;-66
2021/12/31 09:39:58;;;;;;;38.63;22.40;;;;;;;9.02;90.14;98708.84;5110427;27;20106;-67
2021/12/31 09:42:24;;;;;;;38.22;20.40;;;;;;;9.09;90.97;98711.31;5110643;28;20115;-67
2021/12/31 09:44:50;;;;;;;34.05;21.85;;;;;;;9.14;90.38;98707.72;5111359;27;20055;-67
2021/12/31 09:47:17;;;;;;;31.42;18.20;;;;;;;9.21;90.04;98710.97;5109255;28;20038;-67
2021/12/31 09:49:43;;;;;;;51.28;27.48;;;;;;;9.27;90.06;98709.03;5109438;28;20023;-68
2021/12/31 09:52:11;;;;;;;55.40;29.48;;;;;;;9.28;89.73;98703.28;5104954;28;20093;-67
2021/12/31 09:54:41;;;;;;;37.95;23.25;;;;;;;9.31;89.97;98710.94;5109112;28;20482;-68
2021/12/31 09:57:14;;;;;;;32.78;20.92;;;;;;;9.35;89.63;98705.69;5107489;28;20082;-67
2021/12/31 09:59:41;;;;;;;38.08;24.65;;;;;;;9.36;89.07;98699.13;5108158;28;20475;-65
2021/12/31 10:02:09;;;;;;;37.08;23.90;;;;;;;9.37;89.67;98695.28;5108473;28;20425;-66
2021/12/31 10:04:53;;;;;;;41.35;25.38;;;;;;;9.36;89.16;98699.97;5109530;27;20038;-66
2021/12/31 10:07:21;;;;;;;37.78;23.75;;;;;;;9.37;88.99;98698.03;5107607;28;20024;-66
2021/12/31 10:10:03;;;;;;;31.30;20.50;;;;;;;9.38;89.37;98702.41;5111334;27;20030;-66
2021/12/31 10:12:56;;;;;;;27.77;16.77;;;;;;;9.41;89.02;98690.06;5107756;27;20082;-65
2021/12/31 10:15:24;;;;;;;28.90;17.42;;;;;;;9.44;89.23;98684.84;5110423;27;20542;-65
2021/12/31 10:17:50;;;;;;;38.88;21.10;;;;;;;9.47;89.20;98688.94;5092856;28;20368;-66
2021/12/31 10:20:16;;;;;;;48.08;22.95;;;;;;;9.49;89.55;98687.56;5109894;28;20115;-66
2021/12/31 10:22:42;;;;;;;34.28;19.10;;;;;;;9.52;88.99;98694.38;5108978;28;20118;-66
2021/12/31 10:25:19;;;;;;;26.45;15.90;;;;;;;9.54;89.35;98694.91;5088199;28;20110;-66
2021/12/31 10:27:45;;;;;;;28.20;15.77;;;;;;;9.57;88.50;98699.81;5108703;28;20094;-66
2021/12/31 10:30:10;;;;;;;32.97;17.50;;;;;;;9.58;89.08;98692.44;5111249;28;20115;-65
2021/12/31 10:32:40;;;;;;;38.55;21.70;;;;;;;9.60;89.52;98682.00;5111430;28;20024;-64
2021/12/31 10:35:12;;;;;;;35.53;21.90;;;;;;;9.63;89.20;98684.16;5107688;28;20039;-64
2021/12/31 10:37:58;;;;;;;37.97;21.27;;;;;;;9.65;88.82;98681.97;5109855;28;20036;-64
2021/12/31 10:40:30;;;;;;;33.90;20.60;;;;;;;9.66;89.46;98687.19;5110865;27;20472;-65
2021/12/31 10:43:11;;;;;;;32.92;19.27;;;;;;;9.65;88.64;98690.19;5092757;28;20062;-65
2021/12/31 10:45:38;;;;;;;26.85;15.70;;;;;;;9.66;88.90;98680.88;5107739;28;20054;-65
2021/12/31 10:48:06;;;;;;;25.45;16.38;;;;;;;9.67;89.02;98679.75;5110222;27;20077;-65
2021/12/31 10:50:32;;;;;;;26.95;15.35;;;;;;;9.69;88.94;98685.78;5109779;27;20118;-66
2021/12/31 10:53:07;;;;;;;28.73;16.92;;;;;;;9.72;88.40;98677.00;5091855;27;20030;-66
2021/12/31 10:55:39;;;;;;;25.70;15.52;;;;;;;9.76;89.06;98680.00;5088449;28;20096;-67
2021/12/31 10:58:05;;;;;;;40.28;20.85;;;;;;;9.77;88.47;98679.69;5110763;27;20055;-66
2021/12/31 11:00:37;;;;;;;44.03;22.48;;;;;;;9.80;88.37;98665.44;5111840;27;20180;-66
2021/12/31 11:03:03;;;;;;;31.63;16.55;;;;;;;9.82;88.17;98665.97;5086994;28;20042;-66
2021/12/31 11:05:29;;;;;;;32.70;16.35;;;;;;;9.85;88.14;98671.97;5106975;28;20042;-67
2021/12/31 11:07:58;;;;;;;39.35;18.77;;;;;;;9.88;87.86;98663.19;5111069;27;20394;-66
2021/12/31 11:10:26;;;;;;;39.45;19.25;;;;;;;9.91;87.82;98665.34;5109977;28;20043;-67
2021/12/31 11:12:52;;;;;;;28.55;16.13;;;;;;;9.92;87.66;98650.56;5104500;28;20027;-66
2021/12/31 11:15:19;;;;;;;37.58;20.58;;;;;;;9.93;87.63;98647.50;5108778;28;20085;-67
2021/12/31 11:17:44;;;;;;;42.28;22.70;;;;;;;9.92;88.06;98656.03;5107681;28;20103;-67
2021/12/31 11:20:12;;;;;;;46.75;23.80;;;;;;;9.92;86.63;98654.09;5089512;28;20073;-67
2021/12/31 11:22:38;;;;;;;44.33;21.83;;;;;;;9.91;87.14;98648.91;5117639;27;20034;-66